Time;durP1;ratioP1;P1;durP2;ratioP2;P2;SDS_P1;SDS_P2;PMS_P1;PMS_P2;Temp;Humidity;BMP_temperature;BMP_pressure;BME280_temperature;BME280_humidity;BME280_pressure;Samples;Min_cycle;Max_cycle;Signal;HPM_P1;HPM_P2
2021/04/25 00:01:04;;;;;;;4.88;3.70;;;12.00;38.30;;;;;;1489219;39;20063;-52
2021/04/25 00:02:25;;;;;;;6.18;3.45;;;11.90;38.40;;;;;;1489708;39;20287;-51
2021/04/25 00:03:46;;;;;;;6.22;3.17;;;11.90;38.40;;;;;;1489560;39;20495;-53
2021/04/25 00:05:08;;;;;;;5.10;3.40;;;11.90;38.60;;;;;;1490343;39;20379;-50
2021/04/25 00:06:29;;;;;;;5.93;3.53;;;11.90;38.60;;;;;;1490322;39;20372;-56
2021/04/25 00:07:51;;;;;;;4.13;2.92;;;11.80;38.50;;;;;;1491214;39;20602;-55
2021/04/25 00:09:12;;;;;;;5.20;3.28;;;11.80;38.70;;;;;;1490846;39;20371;-52
2021/04/25 00:10:33;;;;;;;6.38;3.90;;;11.80;38.90;;;;;;1490670;39;20333;-53
2021/04/25 00:11:54;;;;;;;6.20;3.60;;;11.80;38.90;;;;;;1490239;39;20039;-54
2021/04/25 00:13:15;;;;;;;5.20;3.60;;;11.80;39.00;;;;;;1491116;39;20044;-55
2021/04/25 00:14:36;;;;;;;5.65;3.63;;;11.70;39.00;;;;;;1490160;39;20367;-52
2021/04/25 00:15:57;;;;;;;8.77;4.05;;;11.70;39.00;;;;;;1490329;39;20035;-54
2021/04/25 00:17:18;;;;;;;5.18;3.22;;;11.70;39.10;;;;;;1491185;39;20031;-54
2021/04/25 00:18:39;;;;;;;6.38;3.42;;;11.70;39.30;;;;;;1491574;39;20059;-55
2021/04/25 00:20:00;;;;;;;3.90;3.35;;;11.70;39.30;;;;;;1491379;39;20544;-54
2021/04/25 00:21:22;;;;;;;5.72;3.55;;;11.70;39.30;;;;;;1490779;39;20028;-54
2021/04/25 00:22:44;;;;;;;7.63;4.15;;;11.70;39.30;;;;;;1489482;39;20091;-55
2021/04/25 00:24:05;;;;;;;5.82;3.75;;;11.70;39.40;;;;;;1485242;40;20036;-55
2021/04/25 00:25:26;;;;;;;7.35;3.78;;;11.60;39.30;;;;;;1487740;39;20015;-56
2021/04/25 00:26:47;;;;;;;5.93;3.38;;;11.60;39.30;;;;;;1490042;39;20032;-54
2021/04/25 00:28:08;;;;;;;5.75;3.60;;;11.60;39.50;;;;;;1490845;39;20036;-55
2021/04/25 00:29:29;;;;;;;6.43;3.50;;;11.60;39.50;;;;;;1487006;39;20121;-54
2021/04/25 00:30:50;;;;;;;5.40;3.78;;;11.60;39.60;;;;;;1487641;39;20369;-53
2021/04/25 00:32:11;;;;;;;7.57;3.80;;;11.60;39.70;;;;;;1490480;39;20120;-53
2021/04/25 00:33:32;;;;;;;7.53;4.35;;;11.60;39.80;;;;;;1490533;39;20039;-53
2021/04/25 00:34:53;;;;;;;6.28;3.70;;;11.60;39.80;;;;;;1490947;39;20040;-54
2021/04/25 00:36:14;;;;;;;5.85;3.80;;;11.60;39.90;;;;;;1490204;39;20038;-52
2021/04/25 00:37:35;;;;;;;5.95;3.83;;;11.50;39.80;;;;;;1490046;39;20036;-52
2021/04/25 00:38:56;;;;;;;6.53;3.72;;;11.60;39.90;;;;;;1489874;39;20564;-52
2021/04/25 00:40:19;;;;;;;6.28;3.50;;;11.50;39.80;;;;;;1491147;39;20079;-54
2021/04/25 00:41:40;;;;;;;8.95;3.97;;;11.60;40.00;;;;;;1486536;40;20045;-52
2021/04/25 00:43:01;;;;;;;4.65;3.05;;;11.50;40.00;;;;;;1489678;39;20053;-53
2021/04/25 00:44:22;;;;;;;6.63;3.70;;;11.50;40.00;;;;;;1489585;39;20020;-54
2021/04/25 00:45:43;;;;;;;7.40;4.45;;;11.50;39.90;;;;;;1490452;39;20046;-51
2021/04/25 00:47:04;;;;;;;5.85;3.58;;;11.50;40.00;;;;;;1488985;39;20318;-53
2021/04/25 00:48:24;;;;;;;6.13;3.97;;;11.50;40.00;;;;;;1491437;39;20132;-50
2021/04/25 00:49:45;;;;;;;6.28;3.60;;;11.50;40.00;;;;;;1491281;39;20031;-53
2021/04/25 00:51:11;;;;;;;6.68;3.90;;;11.50;40.00;;;;;;1490696;39;20080;-53
2021/04/25 00:52:37;;;;;;;7.13;3.90;;;11.40;40.10;;;;;;1490588;39;20020;-53
2021/04/25 00:53:58;;;;;;;6.30;3.85;;;11.50;40.20;;;;;;1486856;40;20246;-53
2021/04/25 00:55:22;;;;;;;5.78;3.72;;;11.40;40.00;;;;;;1489632;39;20028;-54
2021/04/25 00:56:43;;;;;;;6.53;3.90;;;11.40;40.60;;;;;;1489097;39;20034;-53
2021/04/25 00:58:04;;;;;;;7.18;4.28;;;11.40;40.00;;;;;;1491034;39;20027;-53
2021/04/25 00:59:27;;;;;;;7.15;4.85;;;11.40;40.10;;;;;;1491002;39;20108;-54
2021/04/25 01:00:48;;;;;;;7.07;4.07;;;11.30;40.20;;;;;;1490161;39;20107;-54
2021/04/25 01:02:11;;;;;;;6.28;3.83;;;11.30;40.20;;;;;;1490857;39;20118;-55
2021/04/25 01:03:32;;;;;;;5.65;3.50;;;11.30;40.30;;;;;;1490867;39;20234;-55
2021/04/25 01:04:52;;;;;;;5.55;3.80;;;11.30;40.30;;;;;;1488774;39;20273;-56
2021/04/25 01:06:13;;;;;;;4.95;4.10;;;11.30;40.30;;;;;;1482973;39;20028;-53
2021/04/25 01:07:34;;;;;;;4.97;4.03;;;11.20;40.40;;;;;;1489914;39;20128;-53
2021/04/25 01:08:55;;;;;;;8.15;4.18;;;11.20;40.40;;;;;;1489951;39;20094;-52
2021/04/25 01:10:18;;;;;;;6.18;4.18;;;11.20;40.40;;;;;;1489196;39;20268;-53
2021/04/25 01:11:39;;;;;;;6.60;3.90;;;11.10;40.40;;;;;;1491030;39;20043;-54
2021/04/25 01:13:01;;;;;;;7.13;4.15;;;11.10;40.50;;;;;;1490117;39;20528;-55
2021/04/25 01:14:22;;;;;;;5.47;3.53;;;11.10;40.50;;;;;;1488718;39;20204;-54
2021/04/25 01:15:43;;;;;;;7.07;4.25;;;11.10;40.60;;;;;;1490304;39;20101;-54
2021/04/25 01:17:04;;;;;;;9.55;4.50;;;11.10;40.70;;;;;;1489153;39;20032;-53
2021/04/25 01:18:25;;;;;;;6.00;4.13;;;11.00;40.70;;;;;;1489770;39;20357;-55
2021/04/25 01:19:46;;;;;;;6.72;4.38;;;11.00;40.80;;;;;;1489906;39;20302;-54
2021/04/25 01:21:07;;;;;;;5.70;3.92;;;11.00;40.80;;;;;;1490462;39;20357;-53
2021/04/25 01:22:27;;;;;;;6.97;4.20;;;11.00;40.80;;;;;;1488806;39;20040;-53
2021/04/25 01:23:49;;;;;;;4.20;3.35;;;10.90;40.90;;;;;;1490222;39;20116;-54
2021/04/25 01:25:12;;;;;;;4.88;3.60;;;10.90;41.10;;;;;;1489437;39;20043;-52
2021/04/25 01:26:33;;;;;;;6.43;4.13;;;10.90;41.20;;;;;;1490004;39;20040;-54
2021/04/25 01:27:55;;;;;;;8.43;4.25;;;10.90;41.20;;;;;;1490435;39;20387;-53
2021/04/25 01:29:15;;;;;;;5.00;4.18;;;10.80;41.10;;;;;;1490880;39;20395;-54
2021/04/25 01:30:36;;;;;;;5.88;3.97;;;10.90;41.20;;;;;;1490171;39;20099;-54
2021/04/25 01:31:58;;;;;;;7.18;4.28;;;10.80;41.20;;;;;;1489197;39;20038;-53
2021/04/25 01:33:18;;;;;;;6.32;4.78;;;10.80;41.30;;;;;;1490820;39;20327;-52
2021/04/25 01:34:40;;;;;;;7.43;4.20;;;10.80;41.20;;;;;;1490767;39;20034;-54
2021/04/25 01:36:03;;;;;;;8.13;4.22;;;10.80;41.30;;;;;;1490214;39;20612;-52
2021/04/25 01:37:24;;;;;;;6.38;4.13;;;10.80;41.40;;;;;;1486170;40;20020;-53
2021/04/25 01:38:45;;;;;;;9.30;4.53;;;10.80;41.40;;;;;;1489812;39;20030;-55
2021/04/25 01:40:07;;;;;;;7.57;4.60;;;10.80;41.40;;;;;;1491418;39;20027;-54
2021/04/25 01:41:28;;;;;;;6.20;3.95;;;10.70;41.40;;;;;;1490126;39;20424;-55
2021/04/25 01:42:49;;;;;;;6.88;4.20;;;10.70;41.30;;;;;;1490336;39;20100;-53
2021/04/25 01:44:10;;;;;;;5.90;4.25;;;10.70;41.40;;;;;;1491149;39;20016;-53
2021/04/25 01:45:31;;;;;;;6.82;4.25;;;10.70;41.50;;;;;;1489784;39;20148;-55
2021/04/25 01:46:52;;;;;;;5.35;3.97;;;10.60;41.50;;;;;;1489471;39;20032;-53
2021/04/25 01:48:13;;;;;;;6.47;4.45;;;10.70;41.60;;;;;;1490278;39;20031;-53
2021/04/25 01:49:34;;;;;;;10.25;4.72;;;10.60;41.60;;;;;;1489986;39;20039;-51
2021/04/25 01:50:55;;;;;;;8.13;4.45;;;10.60;41.70;;;;;;1488587;39;20370;-53
2021/04/25 01:52:16;;;;;;;6.40;4.30;;;10.60;41.80;;;;;;1491272;39;20088;-53
2021/04/25 01:53:37;;;;;;;5.53;4.05;;;10.60;41.90;;;;;;1491357;39;20293;-53
2021/04/25 01:54:58;;;;;;;7.53;4.03;;;10.60;41.80;;;;;;1486362;39;20047;-55
2021/04/25 01:56:19;;;;;;;6.88;4.40;;;10.50;41.80;;;;;;1489033;39;20022;-52
2021/04/25 01:57:40;;;;;;;6.55;4.72;;;10.50;42.00;;;;;;1489187;39;20039;-50
2021/04/25 01:59:02;;;;;;;9.05;4.32;;;10.50;42.00;;;;;;1490860;39;20035;-50
2021/04/25 02:00:39;;;;;;;6.53;4.57;;;10.50;42.10;;;;;;1485247;40;20030;-53
2021/04/25 02:02:01;;;;;;;6.13;3.80;;;10.50;42.30;;;;;;1490458;39;20097;-50
2021/04/25 02:03:24;;;;;;;7.78;4.72;;;10.50;42.00;;;;;;1489900;39;20039;-52
2021/04/25 02:04:45;;;;;;;6.53;4.18;;;10.40;42.10;;;;;;1490776;39;20039;-53
2021/04/25 02:06:06;;;;;;;6.75;4.60;;;10.50;42.10;;;;;;1490767;39;20039;-51
2021/04/25 02:07:27;;;;;;;7.82;5.10;;;10.40;42.10;;;;;;1489729;39;20035;-55
2021/04/25 02:08:49;;;;;;;9.73;5.47;;;10.40;42.10;;;;;;1491030;39;20027;-55
2021/04/25 02:10:11;;;;;;;6.65;4.60;;;10.40;42.20;;;;;;1490812;39;20023;-54
2021/04/25 02:11:32;;;;;;;6.28;4.65;;;10.40;42.20;;;;;;1488573;39;20024;-54
2021/04/25 02:12:54;;;;;;;6.45;4.65;;;10.40;42.20;;;;;;1490352;39;20035;-54
2021/04/25 02:14:14;;;;;;;8.27;4.65;;;10.40;42.30;;;;;;1490721;39;20026;-49
2021/04/25 02:15:36;;;;;;;8.85;4.65;;;10.30;42.30;;;;;;1490087;39;20043;-52
2021/04/25 02:16:57;;;;;;;8.48;4.78;;;10.30;42.30;;;;;;1489878;39;20027;-52
2021/04/25 02:18:18;;;;;;;7.13;4.78;;;10.30;42.40;;;;;;1490001;39;20069;-51
2021/04/25 02:19:38;;;;;;;6.60;4.70;;;10.30;42.50;;;;;;1490783;39;20027;-52
2021/04/25 02:21:00;;;;;;;8.70;4.55;;;10.30;42.50;;;;;;1489108;39;20043;-51
2021/04/25 02:22:21;;;;;;;7.63;4.47;;;10.30;42.60;;;;;;1490556;39;20036;-52
2021/04/25 02:23:42;;;;;;;8.05;4.35;;;10.30;43.10;;;;;;1490487;39;20112;-51
2021/04/25 02:25:04;;;;;;;7.35;4.50;;;10.30;42.50;;;;;;1490840;39;20028;-49
2021/04/25 02:26:25;;;;;;;7.50;4.55;;;10.20;42.60;;;;;;1489823;39;20039;-51
2021/04/25 02:27:47;;;;;;;10.32;4.57;;;10.20;42.60;;;;;;1490889;39;20043;-49
2021/04/25 02:29:08;;;;;;;5.70;4.38;;;10.20;42.60;;;;;;1490305;39;20128;-55
2021/04/25 02:30:32;;;;;;;6.45;4.57;;;10.20;42.70;;;;;;1492102;39;20028;-54
2021/04/25 02:31:53;;;;;;;6.40;4.10;;;10.20;42.70;;;;;;1489664;39;20024;-54
2021/04/25 02:33:14;;;;;;;7.45;4.60;;;10.20;42.70;;;;;;1490711;39;20120;-54
2021/04/25 02:34:36;;;;;;;6.30;4.43;;;10.20;42.70;;;;;;1491024;39;20343;-55
2021/04/25 02:35:57;;;;;;;6.57;4.32;;;10.10;42.60;;;;;;1489727;39;20040;-55
2021/04/25 02:37:18;;;;;;;7.80;4.82;;;10.10;42.80;;;;;;1490067;39;20040;-53
2021/04/25 02:38:39;;;;;;;8.85;4.63;;;10.10;42.70;;;;;;1489959;39;20035;-51
2021/04/25 02:40:00;;;;;;;6.35;4.45;;;10.10;42.80;;;;;;1491635;39;20034;-53
2021/04/25 02:41:21;;;;;;;6.75;4.55;;;10.10;42.80;;;;;;1490261;39;20094;-55
2021/04/25 02:42:42;;;;;;;9.60;4.13;;;10.10;42.80;;;;;;1489793;39;20380;-54
2021/04/25 02:44:04;;;;;;;9.07;4.70;;;10.00;42.90;;;;;;1490138;39;20344;-55
2021/04/25 02:45:26;;;;;;;7.80;4.80;;;10.10;43.00;;;;;;1490014;39;20028;-54
2021/04/25 02:46:47;;;;;;;7.32;4.32;;;10.00;42.90;;;;;;1489501;39;20064;-53
2021/04/25 02:48:09;;;;;;;10.65;5.15;;;10.00;42.90;;;;;;1491495;39;20032;-52
2021/04/25 02:49:30;;;;;;;5.65;4.35;;;10.00;43.00;;;;;;1490849;39;20246;-55
2021/04/25 02:50:51;;;;;;;8.68;4.72;;;10.00;43.10;;;;;;1490568;39;20071;-54
2021/04/25 02:52:12;;;;;;;9.80;4.80;;;10.00;43.10;;;;;;1491396;39;20283;-52
2021/04/25 02:53:33;;;;;;;9.35;4.95;;;10.00;43.20;;;;;;1490366;39;20030;-54
2021/04/25 02:54:54;;;;;;;8.52;4.78;;;10.00;43.30;;;;;;1491076;39;20359;-54
2021/04/25 02:56:15;;;;;;;5.75;4.43;;;9.90;43.20;;;;;;1491008;39;20552;-55
2021/04/25 02:57:36;;;;;;;6.13;4.80;;;9.90;43.30;;;;;;1490776;39;20043;-53
2021/04/25 02:58:57;;;;;;;6.95;4.60;;;9.90;43.30;;;;;;1492100;39;20637;-54
2021/04/25 03:00:22;;;;;;;8.93;4.75;;;9.90;43.40;;;;;;1491112;39;20034;-54
2021/04/25 03:01:43;;;;;;;7.63;5.18;;;9.90;43.40;;;;;;1491515;39;20012;-54
2021/04/25 03:03:04;;;;;;;9.25;4.82;;;9.90;43.30;;;;;;1491775;39;20023;-55
2021/04/25 03:04:25;;;;;;;7.32;4.90;;;9.90;43.30;;;;;;1489714;39;20043;-56
2021/04/25 03:05:49;;;;;;;8.40;4.82;;;9.90;43.30;;;;;;1491959;39;20114;-55
2021/04/25 03:07:09;;;;;;;7.57;4.72;;;9.80;43.40;;;;;;1492087;39;20545;-55
2021/04/25 03:08:30;;;;;;;8.68;5.40;;;9.80;43.40;;;;;;1490296;39;20117;-54
2021/04/25 03:09:51;;;;;;;7.40;4.90;;;9.80;43.50;;;;;;1489300;39;20124;-53
2021/04/25 03:11:12;;;;;;;9.73;5.18;;;9.80;43.40;;;;;;1491369;39;20032;-50
2021/04/25 03:12:34;;;;;;;7.13;5.05;;;9.80;43.50;;;;;;1491599;39;20363;-50
2021/04/25 03:13:54;;;;;;;6.88;4.80;;;9.80;43.50;;;;;;1491262;39;20034;-54
2021/04/25 03:15:17;;;;;;;8.15;4.88;;;9.80;43.60;;;;;;1491591;39;20028;-55
2021/04/25 03:16:38;;;;;;;5.57;4.35;;;9.70;43.60;;;;;;1491213;39;20031;-54
2021/04/25 03:17:59;;;;;;;8.13;4.78;;;9.80;43.70;;;;;;1489017;39;20028;-53
2021/04/25 03:19:20;;;;;;;8.25;5.18;;;9.70;43.80;;;;;;1490798;39;20356;-54
2021/04/25 03:20:41;;;;;;;8.52;5.00;;;9.70;43.80;;;;;;1491149;39;20043;-55
2021/04/25 03:22:03;;;;;;;7.90;5.40;;;9.70;43.80;;;;;;1490833;39;20050;-51
2021/04/25 03:23:23;;;;;;;8.20;5.25;;;9.70;43.80;;;;;;1491081;39;20031;-52
2021/04/25 03:24:44;;;;;;;7.95;4.70;;;9.70;43.80;;;;;;1489900;39;20020;-53
2021/04/25 03:26:05;;;;;;;8.85;5.00;;;9.70;43.80;;;;;;1491275;39;20499;-54
2021/04/25 03:27:26;;;;;;;9.70;5.45;;;9.70;43.80;;;;;;1489478;39;20043;-54
2021/04/25 03:28:47;;;;;;;10.02;6.00;;;9.70;44.00;;;;;;1490833;39;20029;-54
2021/04/25 03:30:11;;;;;;;8.07;4.70;;;9.70;44.10;;;;;;1490781;39;20027;-55
2021/04/25 03:31:32;;;;;;;6.97;5.00;;;9.70;44.20;;;;;;1488883;39;20035;-53
2021/04/25 03:32:53;;;;;;;8.05;5.38;;;9.60;44.20;;;;;;1488587;39;20044;-53
2021/04/25 03:34:14;;;;;;;6.88;4.65;;;9.70;44.20;;;;;;1491406;39;20044;-52
2021/04/25 03:35:35;;;;;;;7.47;5.18;;;9.60;44.30;;;;;;1490347;39;20532;-51
2021/04/25 03:36:56;;;;;;;9.48;5.32;;;9.60;44.30;;;;;;1489841;39;20028;-51
2021/04/25 03:38:17;;;;;;;8.20;5.70;;;9.70;44.40;;;;;;1488279;39;20028;-51
2021/04/25 03:39:37;;;;;;;9.07;5.20;;;9.60;44.60;;;;;;1491765;39;20111;-53
2021/04/25 03:40:58;;;;;;;7.03;5.13;;;9.70;44.50;;;;;;1490787;39;20272;-54
2021/04/25 03:42:19;;;;;;;8.98;4.90;;;9.60;44.50;;;;;;1491027;39;20019;-54
2021/04/25 03:43:40;;;;;;;8.05;5.05;;;9.60;44.60;;;;;;1490035;39;20058;-53
2021/04/25 03:45:03;;;;;;;8.05;5.28;;;9.60;44.70;;;;;;1490528;39;20062;-53
2021/04/25 03:46:24;;;;;;;6.65;4.40;;;9.60;44.80;;;;;;1489847;39;20039;-54
2021/04/25 03:47:47;;;;;;;7.10;5.05;;;9.60;44.70;;;;;;1489860;39;20112;-54
2021/04/25 03:49:08;;;;;;;8.13;5.53;;;9.60;44.70;;;;;;1491494;39;20023;-54
2021/04/25 03:50:29;;;;;;;7.03;5.20;;;9.60;44.70;;;;;;1490867;39;20040;-53
2021/04/25 03:51:52;;;;;;;7.75;5.05;;;9.70;44.70;;;;;;1489263;39;20277;-53
2021/04/25 03:53:13;;;;;;;7.07;4.90;;;9.60;44.70;;;;;;1491507;39;20280;-51
2021/04/25 03:54:35;;;;;;;9.73;5.45;;;9.60;44.70;;;;;;1491908;39;20024;-55
2021/04/25 03:55:56;;;;;;;9.02;5.18;;;9.70;44.90;;;;;;1490811;39;20051;-54
2021/04/25 03:57:17;;;;;;;7.53;5.40;;;9.60;44.70;;;;;;1491588;39;20038;-54
2021/04/25 03:58:38;;;;;;;9.20;4.95;;;9.60;44.80;;;;;;1490768;39;20032;-52
2021/04/25 04:00:00;;;;;;;8.52;5.25;;;9.70;44.90;;;;;;1490443;39;20082;-51
2021/04/25 04:01:21;;;;;;;9.85;5.70;;;9.60;45.00;;;;;;1489898;39;20024;-53
2021/04/25 04:02:42;;;;;;;7.63;4.78;;;9.70;45.10;;;;;;1489043;39;20035;-53
2021/04/25 04:04:03;;;;;;;8.65;5.32;;;9.70;45.20;;;;;;1491689;39;20031;-51
2021/04/25 04:05:24;;;;;;;7.80;4.93;;;9.70;45.30;;;;;;1489419;39;20024;-53
2021/04/25 04:06:45;;;;;;;7.95;5.00;;;9.60;45.20;;;;;;1490032;39;20352;-55
2021/04/25 04:08:06;;;;;;;7.50;5.25;;;9.60;45.30;;;;;;1488991;39;20463;-54
2021/04/25 04:09:27;;;;;;;9.65;5.57;;;9.70;45.50;;;;;;1491314;39;20031;-53
2021/04/25 04:10:48;;;;;;;9.13;5.30;;;9.70;45.30;;;;;;1490700;39;20040;-54
2021/04/25 04:12:09;;;;;;;7.47;5.38;;;9.70;45.30;;;;;;1490763;39;20512;-52
2021/04/25 04:13:31;;;;;;;9.35;5.40;;;9.70;45.40;;;;;;1489219;39;20031;-54
2021/04/25 04:14:51;;;;;;;8.02;5.57;;;9.70;45.50;;;;;;1488113;39;20066;-54
2021/04/25 04:16:13;;;;;;;10.30;5.57;;;9.70;45.50;;;;;;1490492;39;20035;-53
2021/04/25 04:17:34;;;;;;;7.45;4.93;;;9.70;45.40;;;;;;1489739;39;20242;-52
2021/04/25 04:18:54;;;;;;;8.70;5.68;;;9.70;45.40;;;;;;1486785;40;20090;-54
2021/04/25 04:20:15;;;;;;;10.60;6.72;;;9.70;45.30;;;;;;1487680;39;20031;-53
2021/04/25 04:21:36;;;;;;;12.40;6.22;;;9.70;45.50;;;;;;1489116;39;20279;-53
2021/04/25 04:22:57;;;;;;;7.40;5.40;;;9.80;45.60;;;;;;1490150;39;20036;-54
2021/04/25 04:24:18;;;;;;;9.15;5.35;;;9.70;45.60;;;;;;1491819;39;20405;-54
2021/04/25 04:25:39;;;;;;;7.20;5.25;;;9.70;45.60;;;;;;1491055;39;20055;-54
2021/04/25 04:27:00;;;;;;;8.27;5.70;;;9.80;45.60;;;;;;1486337;40;20039;-51
2021/04/25 04:28:21;;;;;;;9.45;5.55;;;9.80;45.70;;;;;;1489299;39;20346;-54
2021/04/25 04:29:42;;;;;;;8.50;5.50;;;9.80;45.60;;;;;;1490574;39;20035;-53
2021/04/25 04:31:04;;;;;;;8.15;5.70;;;9.80;45.50;;;;;;1487939;39;20028;-55
2021/04/25 04:32:25;;;;;;;8.73;5.80;;;9.80;45.50;;;;;;1491525;39;20898;-52
2021/04/25 04:33:45;;;;;;;8.73;4.90;;;9.80;45.60;;;;;;1490329;39;20028;-52
2021/04/25 04:35:07;;;;;;;9.70;5.40;;;9.80;45.50;;;;;;1489023;39;20036;-53
2021/04/25 04:36:28;;;;;;;9.18;5.40;;;9.80;45.50;;;;;;1489708;39;20422;-53
2021/04/25 04:37:49;;;;;;;10.15;5.72;;;9.80;45.50;;;;;;1490204;39;20331;-54
2021/04/25 04:39:10;;;;;;;9.93;5.95;;;9.80;45.30;;;;;;1490629;39;20030;-51
2021/04/25 04:40:31;;;;;;;7.88;5.43;;;9.80;45.20;;;;;;1490612;39;20039;-51
2021/04/25 04:41:52;;;;;;;7.38;5.03;;;9.80;45.30;;;;;;1490777;39;20028;-54
2021/04/25 04:43:13;;;;;;;9.38;5.75;;;9.80;45.30;;;;;;1488611;39;20024;-50
2021/04/25 04:44:33;;;;;;;8.45;5.93;;;9.80;45.30;;;;;;1490778;39;20391;-51
2021/04/25 04:45:54;;;;;;;8.75;5.90;;;9.80;45.30;;;;;;1491012;39;20036;-50
2021/04/25 04:47:15;;;;;;;8.75;5.50;;;9.80;45.30;;;;;;1489235;39;20028;-53
2021/04/25 04:48:36;;;;;;;8.88;5.50;;;9.80;45.30;;;;;;1489661;39;20036;-55
2021/04/25 04:49:57;;;;;;;7.57;5.50;;;9.80;45.30;;;;;;1489874;39;20085;-52
2021/04/25 04:51:18;;;;;;;7.38;5.22;;;9.80;45.30;;;;;;1490742;39;20024;-51
2021/04/25 04:52:39;;;;;;;7.72;5.28;;;9.80;45.30;;;;;;1490658;39;20124;-52
2021/04/25 04:54:00;;;;;;;10.27;5.55;;;9.70;45.40;;;;;;1489671;39;20028;-50
2021/04/25 04:55:21;;;;;;;11.07;5.30;;;9.70;45.30;;;;;;1491074;39;20361;-51
2021/04/25 04:56:42;;;;;;;8.77;5.40;;;9.70;45.40;;;;;;1486243;39;20047;-53
2021/04/25 04:58:03;;;;;;;8.80;5.20;;;9.70;45.40;;;;;;1489370;39;20260;-50
2021/04/25 04:59:24;;;;;;;9.93;5.20;;;9.70;45.50;;;;;;1490423;39;20083;-52
2021/04/25 05:00:45;;;;;;;7.60;5.45;;;9.70;45.50;;;;;;1489685;39;20264;-53
2021/04/25 05:02:06;;;;;;;7.93;5.30;;;9.70;45.50;;;;;;1488997;39;20439;-52
2021/04/25 05:03:26;;;;;;;9.45;5.82;;;9.70;45.40;;;;;;1489963;39;20072;-52
2021/04/25 05:04:47;;;;;;;10.20;5.13;;;9.70;45.50;;;;;;1490888;39;20032;-53
2021/04/25 05:06:08;;;;;;;8.80;5.40;;;9.70;45.40;;;;;;1490608;39;20031;-54
2021/04/25 05:07:29;;;;;;;8.63;5.70;;;9.70;45.50;;;;;;1490606;39;20052;-52
2021/04/25 05:08:50;;;;;;;10.63;5.90;;;9.70;45.50;;;;;;1488956;39;20036;-51
2021/04/25 05:10:11;;;;;;;9.50;5.60;;;9.70;45.60;;;;;;1490716;39;20039;-49
2021/04/25 05:11:32;;;;;;;10.45;5.72;;;9.70;45.80;;;;;;1486337;40;20058;-52
2021/04/25 05:12:53;;;;;;;7.93;5.32;;;9.70;45.80;;;;;;1488209;39;20032;-50
2021/04/25 05:14:14;;;;;;;8.82;5.57;;;9.70;45.90;;;;;;1486404;40;20036;-52
2021/04/25 05:15:36;;;;;;;8.85;5.65;;;9.70;46.00;;;;;;1488880;39;20347;-53
2021/04/25 05:16:57;;;;;;;7.18;5.00;;;9.70;46.10;;;;;;1490518;39;20047;-53
2021/04/25 05:18:18;;;;;;;11.98;5.70;;;9.70;46.10;;;;;;1490817;39;20036;-55
2021/04/25 05:19:39;;;;;;;9.20;5.70;;;9.70;46.30;;;;;;1491017;39;20343;-53
2021/04/25 05:21:00;;;;;;;8.60;4.80;;;9.70;46.30;;;;;;1489995;39;20039;-52
2021/04/25 05:22:21;;;;;;;9.60;5.32;;;9.70;46.30;;;;;;1489886;39;20019;-53
2021/04/25 05:23:42;;;;;;;7.28;5.40;;;9.80;46.40;;;;;;1488683;39;20047;-53
2021/04/25 05:25:03;;;;;;;10.52;5.60;;;9.80;46.40;;;;;;1490314;39;20051;-54
2021/04/25 05:26:24;;;;;;;11.45;5.65;;;9.80;46.30;;;;;;1489268;39;20038;-52
2021/04/25 05:27:45;;;;;;;7.82;5.70;;;9.80;46.30;;;;;;1489416;39;20032;-53
2021/04/25 05:29:06;;;;;;;10.32;6.05;;;9.80;46.40;;;;;;1490561;39;20035;-54
2021/04/25 05:30:27;;;;;;;9.13;5.47;;;9.90;46.40;;;;;;1490586;39;20193;-53
2021/04/25 05:31:48;;;;;;;9.15;5.88;;;9.90;46.40;;;;;;1488320;39;20133;-54
2021/04/25 05:33:09;;;;;;;8.65;5.22;;;9.90;46.40;;;;;;1488960;39;20032;-55
2021/04/25 05:34:30;;;;;;;8.23;5.13;;;10.00;46.40;;;;;;1490165;39;20024;-51
2021/04/25 05:35:51;;;;;;;9.90;5.97;;;10.00;46.30;;;;;;1490391;39;20395;-53
2021/04/25 05:37:12;;;;;;;7.75;5.35;;;10.00;46.20;;;;;;1486653;39;20032;-54
2021/04/25 05:38:33;;;;;;;10.60;5.40;;;10.00;46.30;;;;;;1489290;39;20039;-50
2021/04/25 05:39:54;;;;;;;9.18;5.47;;;10.10;46.40;;;;;;1490410;39;20268;-54
2021/04/25 05:41:15;;;;;;;8.27;4.93;;;10.10;46.40;;;;;;1490743;39;20109;-50
2021/04/25 05:42:36;;;;;;;10.55;5.93;;;10.10;46.30;;;;;;1491072;39;20085;-54
2021/04/25 05:43:57;;;;;;;6.90;5.25;;;10.10;46.30;;;;;;1489972;39;20040;-53
2021/04/25 05:45:21;;;;;;;9.20;5.30;;;10.20;46.30;;;;;;1488520;39;20031;-54
2021/04/25 05:46:42;;;;;;;9.00;5.47;;;10.20;46.10;;;;;;1490025;39;20062;-55
2021/04/25 05:48:04;;;;;;;8.73;5.32;;;10.20;46.00;;;;;;1490361;39;20342;-54
2021/04/25 05:49:25;;;;;;;6.70;4.97;;;10.30;46.10;;;;;;1489985;39;20023;-52
2021/04/25 05:50:45;;;;;;;9.43;5.70;;;10.30;46.10;;;;;;1489280;39;20108;-52
2021/04/25 05:52:06;;;;;;;7.22;5.50;;;10.40;46.20;;;;;;1490902;39;20024;-51
2021/04/25 05:53:27;;;;;;;8.35;5.57;;;10.40;46.10;;;;;;1490498;39;20441;-52
2021/04/25 05:54:48;;;;;;;10.05;5.55;;;10.40;45.90;;;;;;1488846;39;20033;-54
2021/04/25 05:56:09;;;;;;;5.80;4.38;;;10.40;45.80;;;;;;1488704;39;20039;-53
2021/04/25 05:57:30;;;;;;;11.13;5.45;;;10.50;45.80;;;;;;1488617;39;20027;-55
2021/04/25 05:58:51;;;;;;;7.45;5.32;;;10.50;45.90;;;;;;1489668;39;20127;-56
2021/04/25 06:00:22;;;;;;;7.82;4.82;;;10.50;45.80;;;;;;1490275;39;20085;-53
2021/04/25 06:01:43;;;;;;;10.13;5.28;;;10.50;45.80;;;;;;1489256;39;20050;-51
2021/04/25 06:03:08;;;;;;;6.30;5.05;;;10.60;45.70;;;;;;1488798;39;20036;-53
2021/04/25 06:04:29;;;;;;;6.22;4.75;;;10.60;45.70;;;;;;1488657;39;20081;-53
2021/04/25 06:05:50;;;;;;;9.43;5.07;;;10.60;45.60;;;;;;1489592;39;20039;-54
2021/04/25 06:07:10;;;;;;;7.68;4.57;;;10.60;45.50;;;;;;1490686;39;20031;-54
2021/04/25 06:08:31;;;;;;;8.20;5.28;;;10.70;45.50;;;;;;1489470;39;20050;-53
2021/04/25 06:09:52;;;;;;;7.68;4.60;;;10.70;45.50;;;;;;1491899;39;20062;-54
2021/04/25 06:11:13;;;;;;;9.70;5.00;;;10.70;45.50;;;;;;1490759;39;20081;-52
2021/04/25 06:12:34;;;;;;;7.47;5.32;;;10.70;45.50;;;;;;1490531;39;20350;-53
2021/04/25 06:13:55;;;;;;;7.75;5.13;;;10.70;45.50;;;;;;1489477;39;20068;-53
2021/04/25 06:15:18;;;;;;;9.48;4.93;;;10.70;45.50;;;;;;1490617;39;20052;-55
2021/04/25 06:16:39;;;;;;;9.88;5.32;;;10.80;45.50;;;;;;1490851;39;20048;-55
2021/04/25 06:18:02;;;;;;;6.85;5.45;;;10.80;45.30;;;;;;1491016;39;20057;-53
2021/04/25 06:19:23;;;;;;;11.35;5.97;;;10.80;45.30;;;;;;1490180;39;20036;-52
2021/04/25 06:20:44;;;;;;;12.15;5.57;;;10.80;45.20;;;;;;1489461;39;20636;-56
2021/04/25 06:22:06;;;;;;;7.35;5.18;;;10.90;45.20;;;;;;1491482;39;20031;-53
2021/04/25 06:23:27;;;;;;;7.25;5.32;;;10.90;45.20;;;;;;1490890;39;20045;-54
2021/04/25 06:24:53;;;;;;;9.07;5.30;;;10.90;45.10;;;;;;1490691;39;20445;-53
2021/04/25 06:26:15;;;;;;;7.75;5.28;;;10.90;45.10;;;;;;1490164;39;20044;-54
2021/04/25 06:27:36;;;;;;;8.73;5.15;;;10.90;45.20;;;;;;1489945;39;20413;-55
2021/04/25 06:28:57;;;;;;;7.70;5.43;;;10.90;45.10;;;;;;1490951;39;20232;-54
2021/04/25 06:30:19;;;;;;;8.85;4.95;;;11.00;45.00;;;;;;1490862;39;20377;-56
2021/04/25 06:31:40;;;;;;;8.38;5.43;;;11.00;45.00;;;;;;1489144;39;20112;-53
2021/04/25 06:33:01;;;;;;;7.88;5.05;;;11.00;44.90;;;;;;1490367;39;20431;-54
2021/04/25 06:34:22;;;;;;;7.13;5.30;;;11.00;44.80;;;;;;1489857;39;20035;-53
2021/04/25 06:35:43;;;;;;;8.43;5.20;;;11.10;44.70;;;;;;1490619;39;20311;-54
2021/04/25 06:37:04;;;;;;;7.45;5.03;;;11.10;44.70;;;;;;1491023;39;20430;-55
2021/04/25 06:38:25;;;;;;;9.15;5.25;;;11.10;44.80;;;;;;1489056;39;20038;-55
2021/04/25 06:39:46;;;;;;;8.07;6.00;;;11.10;44.90;;;;;;1490976;39;20035;-53
2021/04/25 06:41:07;;;;;;;9.95;5.90;;;11.10;44.90;;;;;;1490096;39;20454;-54
2021/04/25 06:42:27;;;;;;;7.63;5.10;;;11.10;44.90;;;;;;1490047;39;20509;-53
2021/04/25 06:43:48;;;;;;;8.35;5.90;;;11.10;44.80;;;;;;1489639;39;20027;-54
2021/04/25 06:45:12;;;;;;;9.15;6.28;;;11.10;44.60;;;;;;1488820;39;20043;-54
2021/04/25 06:46:33;;;;;;;7.35;5.78;;;11.20;44.60;;;;;;1490270;39;20206;-53
2021/04/25 06:47:54;;;;;;;6.82;5.35;;;11.20;44.50;;;;;;1490878;39;20024;-52
2021/04/25 06:49:15;;;;;;;8.00;5.63;;;11.20;44.50;;;;;;1490516;39;20173;-53
2021/04/25 06:50:36;;;;;;;9.00;5.95;;;11.20;44.40;;;;;;1490613;39;20334;-51
2021/04/25 06:51:57;;;;;;;10.18;5.63;;;11.30;44.40;;;;;;1488813;39;20036;-53
2021/04/25 06:53:18;;;;;;;6.53;5.53;;;11.30;44.30;;;;;;1490397;39;20028;-54
2021/04/25 06:54:39;;;;;;;9.02;6.03;;;11.30;44.20;;;;;;1490576;39;20959;-54
2021/04/25 06:56:00;;;;;;;8.80;5.68;;;11.30;44.20;;;;;;1489359;39;20136;-55
2021/04/25 06:57:21;;;;;;;9.38;5.45;;;11.30;44.20;;;;;;1490228;39;20526;-54
2021/04/25 06:58:42;;;;;;;6.80;5.28;;;11.40;44.30;;;;;;1490649;39;20046;-51
2021/04/25 07:00:08;;;;;;;9.90;5.72;;;11.30;44.20;;;;;;1489566;39;20061;-54
2021/04/25 07:01:29;;;;;;;8.70;6.03;;;11.40;44.30;;;;;;1489805;39;20071;-52
2021/04/25 07:02:54;;;;;;;8.48;6.68;;;11.40;44.10;;;;;;1490358;39;20024;-51
2021/04/25 07:04:15;;;;;;;9.23;5.95;;;11.40;43.90;;;;;;1491229;39;20393;-53
2021/04/25 07:05:36;;;;;;;11.70;6.68;;;11.40;43.80;;;;;;1490425;39;20082;-51